sensor_id;sensor_type;location;lat;lon;timestamp;P1;durP1;ratioP1;P2;durP2;ratioP2
22525;SDS011;11429;50.842;4.386;2023-05-10T00:00:57;16.45;;;7.38;;
22525;SDS011;11429;50.842;4.386;2023-05-10T00:03:23;11.93;;;7.57;;
22525;SDS011;11429;50.842;4.386;2023-05-10T00:05:49;13.75;;;8.13;;
22525;SDS011;11429;50.842;4.386;2023-05-10T00:08:15;14.93;;;7.80;;
22525;SDS011;11429;50.842;4.386;2023-05-10T00:10:40;14.88;;;8.32;;
22525;SDS011;11429;50.842;4.386;2023-05-10T00:13:06;20.85;;;8.32;;
22525;SDS011;11429;50.842;4.386;2023-05-10T00:15:31;14.90;;;7.88;;
22525;SDS011;11429;50.842;4.386;2023-05-10T00:17:57;13.68;;;7.80;;
22525;SDS011;11429;50.842;4.386;2023-05-10T00:20:23;13.25;;;7.45;;
22525;SDS011;11429;50.842;4.386;2023-05-10T00:22:49;12.75;;;7.85;;
22525;SDS011;11429;50.842;4.386;2023-05-10T00:25:14;16.38;;;8.15;;
22525;SDS011;11429;50.842;4.386;2023-05-10T00:27:40;13.02;;;8.60;;
22525;SDS011;11429;50.842;4.386;2023-05-10T00:30:06;19.50;;;8.93;;
22525;SDS011;11429;50.842;4.386;2023-05-10T00:32:32;15.48;;;8.73;;
22525;SDS011;11429;50.842;4.386;2023-05-10T00:34:58;24.80;;;9.93;;
22525;SDS011;11429;50.842;4.386;2023-05-10T00:37:23;16.65;;;10.38;;
22525;SDS011;11429;50.842;4.386;2023-05-10T00:39:49;14.45;;;10.25;;
22525;SDS011;11429;50.842;4.386;2023-05-10T00:42:15;16.55;;;9.82;;
22525;SDS011;11429;50.842;4.386;2023-05-10T00:44:41;18.48;;;9.85;;
22525;SDS011;11429;50.842;4.386;2023-05-10T00:47:07;17.42;;;10.02;;
22525;SDS011;11429;50.842;4.386;2023-05-10T00:49:33;16.30;;;10.15;;
22525;SDS011;11429;50.842;4.386;2023-05-10T00:52:00;17.15;;;10.73;;
22525;SDS011;11429;50.842;4.386;2023-05-10T00:54:27;15.85;;;10.32;;
22525;SDS011;11429;50.842;4.386;2023-05-10T00:56:52;15.70;;;9.82;;
22525;SDS011;11429;50.842;4.386;2023-05-10T00:59:18;17.17;;;11.70;;
22525;SDS011;11429;50.842;4.386;2023-05-10T01:01:45;18.23;;;10.88;;
22525;SDS011;11429;50.842;4.386;2023-05-10T01:04:14;14.95;;;11.13;;
22525;SDS011;11429;50.842;4.386;2023-05-10T01:06:40;19.95;;;11.50;;
22525;SDS011;11429;50.842;4.386;2023-05-10T01:09:07;17.58;;;12.02;;
22525;SDS011;11429;50.842;4.386;2023-05-10T01:11:36;17.15;;;11.32;;
22525;SDS011;11429;50.842;4.386;2023-05-10T01:14:03;15.10;;;11.45;;
22525;SDS011;11429;50.842;4.386;2023-05-10T01:16:32;18.65;;;11.88;;
22525;SDS011;11429;50.842;4.386;2023-05-10T01:19:04;15.98;;;10.73;;
22525;SDS011;11429;50.842;4.386;2023-05-10T01:33:47;22.48;;;13.60;;
22525;SDS011;11429;50.842;4.386;2023-05-10T01:36:32;19.05;;;13.02;;
22525;SDS011;11429;50.842;4.386;2023-05-10T01:39:11;19.90;;;13.23;;
22525;SDS011;11429;50.842;4.386;2023-05-10T01:46:48;18.45;;;13.05;;
22525;SDS011;11429;50.842;4.386;2023-05-10T01:49:23;17.73;;;12.65;;
22525;SDS011;11429;50.842;4.386;2023-05-10T01:51:53;18.40;;;11.50;;
22525;SDS011;11429;50.842;4.386;2023-05-10T01:54:24;20.17;;;12.85;;
22525;SDS011;11429;50.842;4.386;2023-05-10T01:56:52;19.08;;;13.10;;
22525;SDS011;11429;50.842;4.386;2023-05-10T01:59:23;20.15;;;13.45;;
22525;SDS011;11429;50.842;4.386;2023-05-10T02:01:54;18.38;;;12.90;;
22525;SDS011;11429;50.842;4.386;2023-05-10T02:04:23;20.15;;;13.38;;
22525;SDS011;11429;50.842;4.386;2023-05-10T02:06:50;21.25;;;13.85;;
22525;SDS011;11429;50.842;4.386;2023-05-10T02:09:17;20.58;;;14.50;;
22525;SDS011;11429;50.842;4.386;2023-05-10T02:11:45;21.50;;;13.30;;
22525;SDS011;11429;50.842;4.386;2023-05-10T02:14:13;18.88;;;13.40;;
22525;SDS011;11429;50.842;4.386;2023-05-10T02:16:41;22.10;;;14.02;;
22525;SDS011;11429;50.842;4.386;2023-05-10T02:19:08;20.33;;;13.73;;
22525;SDS011;11429;50.842;4.386;2023-05-10T02:21:35;20.95;;;14.07;;
22525;SDS011;11429;50.842;4.386;2023-05-10T02:24:02;22.40;;;14.35;;
22525;SDS011;11429;50.842;4.386;2023-05-10T02:26:29;21.83;;;13.40;;
22525;SDS011;11429;50.842;4.386;2023-05-10T02:28:56;25.10;;;15.02;;
22525;SDS011;11429;50.842;4.386;2023-05-10T02:31:23;22.45;;;14.38;;
22525;SDS011;11429;50.842;4.386;2023-05-10T02:33:50;19.75;;;13.07;;
22525;SDS011;11429;50.842;4.386;2023-05-10T02:36:16;21.58;;;14.20;;
22525;SDS011;11429;50.842;4.386;2023-05-10T02:38:43;20.42;;;14.10;;
22525;SDS011;11429;50.842;4.386;2023-05-10T02:41:11;20.67;;;12.90;;
22525;SDS011;11429;50.842;4.386;2023-05-10T02:43:38;19.48;;;12.93;;
22525;SDS011;11429;50.842;4.386;2023-05-10T02:46:05;19.38;;;13.25;;
22525;SDS011;11429;50.842;4.386;2023-05-10T02:48:31;24.48;;;13.57;;
22525;SDS011;11429;50.842;4.386;2023-05-10T02:51:00;19.90;;;12.43;;
22525;SDS011;11429;50.842;4.386;2023-05-10T02:53:33;17.55;;;12.85;;
22525;SDS011;11429;50.842;4.386;2023-05-10T02:56:01;18.77;;;12.32;;
22525;SDS011;11429;50.842;4.386;2023-05-10T02:58:32;18.70;;;11.55;;
22525;SDS011;11429;50.842;4.386;2023-05-10T03:00:58;17.58;;;11.70;;
22525;SDS011;11429;50.842;4.386;2023-05-10T03:03:24;18.05;;;11.77;;
22525;SDS011;11429;50.842;4.386;2023-05-10T03:05:51;19.02;;;12.27;;
22525;SDS011;11429;50.842;4.386;2023-05-10T03:08:19;17.00;;;11.85;;
22525;SDS011;11429;50.842;4.386;2023-05-10T03:10:50;18.13;;;11.27;;
22525;SDS011;11429;50.842;4.386;2023-05-10T03:13:39;18.17;;;11.45;;
22525;SDS011;11429;50.842;4.386;2023-05-10T03:16:20;15.13;;;10.43;;
22525;SDS011;11429;50.842;4.386;2023-05-10T03:19:12;23.17;;;12.30;;
22525;SDS011;11429;50.842;4.386;2023-05-10T03:21:45;26.30;;;13.43;;
22525;SDS011;11429;50.842;4.386;2023-05-10T03:24:16;20.58;;;11.85;;
22525;SDS011;11429;50.842;4.386;2023-05-10T03:26:45;19.27;;;12.18;;
22525;SDS011;11429;50.842;4.386;2023-05-10T03:29:11;18.90;;;12.10;;
22525;SDS011;11429;50.842;4.386;2023-05-10T03:31:39;19.55;;;12.57;;
22525;SDS011;11429;50.842;4.386;2023-05-10T03:34:05;21.17;;;13.75;;
22525;SDS011;11429;50.842;4.386;2023-05-10T03:36:31;23.13;;;12.75;;
22525;SDS011;11429;50.842;4.386;2023-05-10T03:38:57;20.50;;;12.90;;
22525;SDS011;11429;50.842;4.386;2023-05-10T03:41:23;19.92;;;12.73;;
22525;SDS011;11429;50.842;4.386;2023-05-10T03:43:50;23.70;;;13.45;;
22525;SDS011;11429;50.842;4.386;2023-05-10T03:46:16;22.77;;;13.77;;
22525;SDS011;11429;50.842;4.386;2023-05-10T03:48:41;21.42;;;13.35;;
22525;SDS011;11429;50.842;4.386;2023-05-10T03:51:07;21.50;;;13.65;;
22525;SDS011;11429;50.842;4.386;2023-05-10T03:53:33;22.15;;;14.98;;
22525;SDS011;11429;50.842;4.386;2023-05-10T03:55:59;23.15;;;14.57;;
22525;SDS011;11429;50.842;4.386;2023-05-10T03:58:24;22.85;;;14.82;;
22525;SDS011;11429;50.842;4.386;2023-05-10T04:00:51;25.75;;;15.35;;
22525;SDS011;11429;50.842;4.386;2023-05-10T04:03:17;25.55;;;15.23;;
22525;SDS011;11429;50.842;4.386;2023-05-10T04:05:42;25.13;;;15.27;;
22525;SDS011;11429;50.842;4.386;2023-05-10T04:08:08;27.85;;;16.13;;
22525;SDS011;11429;50.842;4.386;2023-05-10T04:10:34;27.05;;;17.05;;
22525;SDS011;11429;50.842;4.386;2023-05-10T04:13:00;23.95;;;14.95;;
22525;SDS011;11429;50.842;4.386;2023-05-10T04:15:26;27.30;;;16.80;;
22525;SDS011;11429;50.842;4.386;2023-05-10T04:17:51;24.83;;;16.80;;
22525;SDS011;11429;50.842;4.386;2023-05-10T04:20:18;25.90;;;15.63;;
22525;SDS011;11429;50.842;4.386;2023-05-10T04:22:44;27.95;;;17.33;;
22525;SDS011;11429;50.842;4.386;2023-05-10T04:25:10;25.80;;;16.38;;
22525;SDS011;11429;50.842;4.386;2023-05-10T04:27:35;29.08;;;17.10;;
22525;SDS011;11429;50.842;4.386;2023-05-10T04:30:02;28.05;;;17.08;;
22525;SDS011;11429;50.842;4.386;2023-05-10T04:32:28;28.38;;;18.63;;
22525;SDS011;11429;50.842;4.386;2023-05-10T04:34:54;28.00;;;18.17;;
22525;SDS011;11429;50.842;4.386;2023-05-10T04:37:19;29.17;;;19.52;;
22525;SDS011;11429;50.842;4.386;2023-05-10T04:39:46;27.38;;;18.33;;
22525;SDS011;11429;50.842;4.386;2023-05-10T04:42:12;26.55;;;17.92;;
22525;SDS011;11429;50.842;4.386;2023-05-10T04:44:39;29.48;;;19.50;;
22525;SDS011;11429;50.842;4.386;2023-05-10T04:47:05;30.25;;;19.40;;
22525;SDS011;11429;50.842;4.386;2023-05-10T04:49:31;31.02;;;19.98;;
22525;SDS011;11429;50.842;4.386;2023-05-10T04:51:57;30.40;;;19.35;;
22525;SDS011;11429;50.842;4.386;2023-05-10T04:54:23;33.50;;;19.48;;
22525;SDS011;11429;50.842;4.386;2023-05-10T04:56:49;34.08;;;20.63;;
22525;SDS011;11429;50.842;4.386;2023-05-10T04:59:14;30.90;;;20.45;;
22525;SDS011;11429;50.842;4.386;2023-05-10T05:01:40;30.50;;;20.15;;
22525;SDS011;11429;50.842;4.386;2023-05-10T05:04:06;32.25;;;20.88;;
22525;SDS011;11429;50.842;4.386;2023-05-10T05:06:31;35.67;;;20.75;;
22525;SDS011;11429;50.842;4.386;2023-05-10T05:08:57;30.42;;;20.17;;
22525;SDS011;11429;50.842;4.386;2023-05-10T05:11:23;35.75;;;20.38;;
22525;SDS011;11429;50.842;4.386;2023-05-10T05:13:50;31.88;;;21.27;;
22525;SDS011;11429;50.842;4.386;2023-05-10T05:16:16;34.17;;;22.23;;
22525;SDS011;11429;50.842;4.386;2023-05-10T05:18:42;32.95;;;20.92;;
22525;SDS011;11429;50.842;4.386;2023-05-10T05:21:17;36.67;;;22.52;;
22525;SDS011;11429;50.842;4.386;2023-05-10T05:23:44;35.75;;;22.83;;
22525;SDS011;11429;50.842;4.386;2023-05-10T05:26:10;32.28;;;20.95;;
22525;SDS011;11429;50.842;4.386;2023-05-10T05:28:36;30.48;;;20.83;;
22525;SDS011;11429;50.842;4.386;2023-05-10T05:31:05;30.90;;;19.95;;
22525;SDS011;11429;50.842;4.386;2023-05-10T05:33:32;27.88;;;16.88;;
22525;SDS011;11429;50.842;4.386;2023-05-10T05:36:02;27.33;;;15.52;;
22525;SDS011;11429;50.842;4.386;2023-05-10T05:38:28;25.17;;;14.23;;
22525;SDS011;11429;50.842;4.386;2023-05-10T05:40:54;20.77;;;13.30;;
22525;SDS011;11429;50.842;4.386;2023-05-10T05:43:20;18.65;;;12.18;;
22525;SDS011;11429;50.842;4.386;2023-05-10T05:45:45;18.15;;;11.65;;
22525;SDS011;11429;50.842;4.386;2023-05-10T05:48:11;24.08;;;12.55;;
22525;SDS011;11429;50.842;4.386;2023-05-10T05:50:37;19.10;;;11.27;;
22525;SDS011;11429;50.842;4.386;2023-05-10T05:53:02;20.38;;;12.05;;
22525;SDS011;11429;50.842;4.386;2023-05-10T05:55:28;17.27;;;11.05;;
22525;SDS011;11429;50.842;4.386;2023-05-10T05:57:54;16.25;;;10.95;;
22525;SDS011;11429;50.842;4.386;2023-05-10T06:00:20;18.20;;;11.95;;
22525;SDS011;11429;50.842;4.386;2023-05-10T06:02:46;19.40;;;13.55;;
22525;SDS011;11429;50.842;4.386;2023-05-10T06:05:12;21.52;;;12.95;;
22525;SDS011;11429;50.842;4.386;2023-05-10T06:07:40;26.55;;;15.07;;
22525;SDS011;11429;50.842;4.386;2023-05-10T06:10:08;19.92;;;12.93;;
22525;SDS011;11429;50.842;4.386;2023-05-10T06:12:34;22.25;;;13.38;;
22525;SDS011;11429;50.842;4.386;2023-05-10T06:15:01;26.13;;;15.32;;
22525;SDS011;11429;50.842;4.386;2023-05-10T06:17:27;26.95;;;15.77;;
22525;SDS011;11429;50.842;4.386;2023-05-10T06:19:53;27.25;;;14.55;;
22525;SDS011;11429;50.842;4.386;2023-05-10T06:22:19;25.48;;;13.13;;
22525;SDS011;11429;50.842;4.386;2023-05-10T06:24:46;21.85;;;12.45;;
22525;SDS011;11429;50.842;4.386;2023-05-10T06:27:12;20.27;;;11.13;;
22525;SDS011;11429;50.842;4.386;2023-05-10T06:29:38;25.85;;;11.00;;
22525;SDS011;11429;50.842;4.386;2023-05-10T06:32:04;20.90;;;11.45;;
22525;SDS011;11429;50.842;4.386;2023-05-10T06:34:30;17.10;;;9.52;;
22525;SDS011;11429;50.842;4.386;2023-05-10T06:36:56;21.58;;;10.43;;
22525;SDS011;11429;50.842;4.386;2023-05-10T06:39:22;16.48;;;8.05;;
22525;SDS011;11429;50.842;4.386;2023-05-10T06:41:47;14.60;;;6.97;;
22525;SDS011;11429;50.842;4.386;2023-05-10T06:44:13;12.55;;;6.00;;
22525;SDS011;11429;50.842;4.386;2023-05-10T06:46:39;11.90;;;5.65;;
22525;SDS011;11429;50.842;4.386;2023-05-10T06:49:06;8.90;;;5.07;;
22525;SDS011;11429;50.842;4.386;2023-05-10T06:51:32;11.75;;;5.57;;
22525;SDS011;11429;50.842;4.386;2023-05-10T06:53:57;9.50;;;6.50;;
22525;SDS011;11429;50.842;4.386;2023-05-10T06:56:23;10.73;;;6.88;;
22525;SDS011;11429;50.842;4.386;2023-05-10T06:58:49;9.63;;;6.45;;
22525;SDS011;11429;50.842;4.386;2023-05-10T07:01:15;11.55;;;6.78;;
22525;SDS011;11429;50.842;4.386;2023-05-10T07:03:40;10.23;;;7.40;;
22525;SDS011;11429;50.842;4.386;2023-05-10T07:06:06;12.10;;;7.47;;
22525;SDS011;11429;50.842;4.386;2023-05-10T07:08:34;16.38;;;9.68;;
22525;SDS011;11429;50.842;4.386;2023-05-10T07:11:03;15.50;;;9.40;;
22525;SDS011;11429;50.842;4.386;2023-05-10T07:13:30;16.25;;;9.65;;
22525;SDS011;11429;50.842;4.386;2023-05-10T07:15:56;18.05;;;10.13;;
22525;SDS011;11429;50.842;4.386;2023-05-10T07:18:23;15.88;;;10.25;;
22525;SDS011;11429;50.842;4.386;2023-05-10T07:20:49;19.33;;;10.30;;
22525;SDS011;11429;50.842;4.386;2023-05-10T07:23:15;19.08;;;10.55;;
22525;SDS011;11429;50.842;4.386;2023-05-10T07:25:44;16.63;;;11.00;;
22525;SDS011;11429;50.842;4.386;2023-05-10T07:28:11;20.15;;;11.73;;
22525;SDS011;11429;50.842;4.386;2023-05-10T07:30:36;15.65;;;10.70;;
22525;SDS011;11429;50.842;4.386;2023-05-10T07:33:02;22.35;;;11.75;;
22525;SDS011;11429;50.842;4.386;2023-05-10T07:35:28;21.58;;;11.23;;
22525;SDS011;11429;50.842;4.386;2023-05-10T07:37:53;21.13;;;10.80;;
22525;SDS011;11429;50.842;4.386;2023-05-10T07:40:19;22.38;;;11.55;;
22525;SDS011;11429;50.842;4.386;2023-05-10T07:42:45;21.50;;;10.77;;
22525;SDS011;11429;50.842;4.386;2023-05-10T07:45:10;17.48;;;10.45;;
22525;SDS011;11429;50.842;4.386;2023-05-10T07:47:36;18.10;;;11.07;;
22525;SDS011;11429;50.842;4.386;2023-05-10T07:50:02;15.77;;;9.55;;
22525;SDS011;11429;50.842;4.386;2023-05-10T07:52:28;16.00;;;10.00;;
22525;SDS011;11429;50.842;4.386;2023-05-10T07:54:53;18.23;;;10.50;;
22525;SDS011;11429;50.842;4.386;2023-05-10T07:57:19;15.77;;;10.00;;
22525;SDS011;11429;50.842;4.386;2023-05-10T07:59:45;18.30;;;10.02;;
22525;SDS011;11429;50.842;4.386;2023-05-10T08:02:11;18.48;;;10.60;;
22525;SDS011;11429;50.842;4.386;2023-05-10T08:04:37;16.17;;;9.68;;
22525;SDS011;11429;50.842;4.386;2023-05-10T08:07:02;14.80;;;9.52;;
22525;SDS011;11429;50.842;4.386;2023-05-10T08:09:28;15.52;;;9.10;;
22525;SDS011;11429;50.842;4.386;2023-05-10T08:11:54;18.90;;;10.85;;
22525;SDS011;11429;50.842;4.386;2023-05-10T08:14:20;16.80;;;9.80;;
22525;SDS011;11429;50.842;4.386;2023-05-10T08:16:46;14.75;;;8.70;;
22525;SDS011;11429;50.842;4.386;2023-05-10T08:19:12;13.70;;;9.95;;
22525;SDS011;11429;50.842;4.386;2023-05-10T08:21:37;13.60;;;8.85;;
22525;SDS011;11429;50.842;4.386;2023-05-10T08:24:05;15.82;;;8.73;;
22525;SDS011;11429;50.842;4.386;2023-05-10T08:26:32;13.50;;;8.52;;
22525;SDS011;11429;50.842;4.386;2023-05-10T08:28:57;12.82;;;7.82;;
22525;SDS011;11429;50.842;4.386;2023-05-10T08:31:23;14.65;;;8.85;;
22525;SDS011;11429;50.842;4.386;2023-05-10T08:33:49;13.77;;;7.65;;
22525;SDS011;11429;50.842;4.386;2023-05-10T08:36:16;10.90;;;7.30;;
22525;SDS011;11429;50.842;4.386;2023-05-10T08:38:46;9.52;;;7.53;;
22525;SDS011;11429;50.842;4.386;2023-05-10T08:41:16;12.52;;;8.27;;
22525;SDS011;11429;50.842;4.386;2023-05-10T08:43:42;12.82;;;7.65;;
22525;SDS011;11429;50.842;4.386;2023-05-10T08:46:11;10.88;;;6.82;;
22525;SDS011;11429;50.842;4.386;2023-05-10T08:48:43;10.82;;;6.72;;
22525;SDS011;11429;50.842;4.386;2023-05-10T08:51:35;11.48;;;7.20;;
22525;SDS011;11429;50.842;4.386;2023-05-10T08:54:00;9.82;;;6.10;;
22525;SDS011;11429;50.842;4.386;2023-05-10T08:56:27;9.60;;;6.38;;
22525;SDS011;11429;50.842;4.386;2023-05-10T08:58:53;11.68;;;6.57;;
22525;SDS011;11429;50.842;4.386;2023-05-10T09:01:20;10.45;;;6.35;;
22525;SDS011;11429;50.842;4.386;2023-05-10T09:03:46;9.85;;;6.63;;
22525;SDS011;11429;50.842;4.386;2023-05-10T09:06:13;10.18;;;7.05;;
22525;SDS011;11429;50.842;4.386;2023-05-10T09:08:40;11.95;;;7.93;;
22525;SDS011;11429;50.842;4.386;2023-05-10T09:11:08;13.38;;;9.90;;
22525;SDS011;11429;50.842;4.386;2023-05-10T09:13:35;11.50;;;8.27;;
22525;SDS011;11429;50.842;4.386;2023-05-10T09:16:02;11.32;;;7.72;;
22525;SDS011;11429;50.842;4.386;2023-05-10T09:18:28;10.02;;;7.50;;
22525;SDS011;11429;50.842;4.386;2023-05-10T09:20:54;9.02;;;7.63;;
22525;SDS011;11429;50.842;4.386;2023-05-10T09:23:20;10.23;;;7.35;;
22525;SDS011;11429;50.842;4.386;2023-05-10T09:25:46;11.50;;;7.68;;
22525;SDS011;11429;50.842;4.386;2023-05-10T09:28:12;11.98;;;7.38;;
22525;SDS011;11429;50.842;4.386;2023-05-10T09:30:38;11.82;;;7.05;;
22525;SDS011;11429;50.842;4.386;2023-05-10T09:33:04;11.13;;;7.70;;
22525;SDS011;11429;50.842;4.386;2023-05-10T09:35:32;9.65;;;6.38;;
22525;SDS011;11429;50.842;4.386;2023-05-10T09:38:03;9.23;;;6.90;;
22525;SDS011;11429;50.842;4.386;2023-05-10T09:40:30;8.70;;;5.97;;
22525;SDS011;11429;50.842;4.386;2023-05-10T09:43:03;7.80;;;5.90;;
22525;SDS011;11429;50.842;4.386;2023-05-10T09:45:32;7.07;;;5.15;;
22525;SDS011;11429;50.842;4.386;2023-05-10T09:48:00;6.57;;;5.15;;
22525;SDS011;11429;50.842;4.386;2023-05-10T09:50:28;8.02;;;5.97;;
22525;SDS011;11429;50.842;4.386;2023-05-10T09:52:58;5.95;;;4.82;;
22525;SDS011;11429;50.842;4.386;2023-05-10T09:55:26;6.85;;;5.82;;
22525;SDS011;11429;50.842;4.386;2023-05-10T09:58:10;6.13;;;5.00;;
22525;SDS011;11429;50.842;4.386;2023-05-10T10:00:38;7.60;;;5.55;;
22525;SDS011;11429;50.842;4.386;2023-05-10T10:03:05;8.73;;;6.07;;
22525;SDS011;11429;50.842;4.386;2023-05-10T10:05:36;7.63;;;5.38;;
22525;SDS011;11429;50.842;4.386;2023-05-10T10:08:05;9.13;;;6.15;;
22525;SDS011;11429;50.842;4.386;2023-05-10T10:10:31;10.70;;;6.43;;
22525;SDS011;11429;50.842;4.386;2023-05-10T10:12:58;9.45;;;6.13;;
22525;SDS011;11429;50.842;4.386;2023-05-10T10:15:24;8.52;;;5.82;;
22525;SDS011;11429;50.842;4.386;2023-05-10T10:17:51;8.38;;;5.82;;
22525;SDS011;11429;50.842;4.386;2023-05-10T10:20:17;9.32;;;6.15;;
22525;SDS011;11429;50.842;4.386;2023-05-10T10:22:45;7.28;;;5.75;;
22525;SDS011;11429;50.842;4.386;2023-05-10T10:25:12;9.77;;;5.95;;
22525;SDS011;11429;50.842;4.386;2023-05-10T10:30:32;7.97;;;5.93;;
22525;SDS011;11429;50.842;4.386;2023-05-10T10:35:48;7.20;;;6.20;;
22525;SDS011;11429;50.842;4.386;2023-05-10T10:38:15;7.13;;;6.32;;
22525;SDS011;11429;50.842;4.386;2023-05-10T10:40:42;6.97;;;5.85;;
22525;SDS011;11429;50.842;4.386;2023-05-10T10:43:21;7.82;;;6.07;;
22525;SDS011;11429;50.842;4.386;2023-05-10T10:48:47;6.10;;;4.88;;
22525;SDS011;11429;50.842;4.386;2023-05-10T10:51:13;9.70;;;6.55;;
22525;SDS011;11429;50.842;4.386;2023-05-10T10:53:40;9.20;;;6.53;;
22525;SDS011;11429;50.842;4.386;2023-05-10T10:56:07;7.43;;;5.82;;
22525;SDS011;11429;50.842;4.386;2023-05-10T10:58:38;8.13;;;6.10;;
22525;SDS011;11429;50.842;4.386;2023-05-10T11:01:11;8.77;;;6.00;;
22525;SDS011;11429;50.842;4.386;2023-05-10T11:06:31;7.50;;;6.05;;
22525;SDS011;11429;50.842;4.386;2023-05-10T11:08:59;7.72;;;5.63;;
22525;SDS011;11429;50.842;4.386;2023-05-10T11:11:30;7.38;;;5.80;;
22525;SDS011;11429;50.842;4.386;2023-05-10T11:13:56;6.95;;;4.72;;
22525;SDS011;11429;50.842;4.386;2023-05-10T11:16:28;7.10;;;5.47;;
22525;SDS011;11429;50.842;4.386;2023-05-10T11:19:10;8.52;;;6.15;;
22525;SDS011;11429;50.842;4.386;2023-05-10T11:24:30;8.50;;;5.70;;
22525;SDS011;11429;50.842;4.386;2023-05-10T11:26:56;8.25;;;5.65;;
22525;SDS011;11429;50.842;4.386;2023-05-10T11:29:22;7.55;;;5.88;;
22525;SDS011;11429;50.842;4.386;2023-05-10T11:31:48;5.50;;;4.90;;
22525;SDS011;11429;50.842;4.386;2023-05-10T11:34:24;7.10;;;5.78;;
22525;SDS011;11429;50.842;4.386;2023-05-10T11:36:52;7.60;;;5.63;;
22525;SDS011;11429;50.842;4.386;2023-05-10T11:39:20;6.93;;;5.65;;
22525;SDS011;11429;50.842;4.386;2023-05-10T11:41:49;7.25;;;5.60;;
22525;SDS011;11429;50.842;4.386;2023-05-10T11:44:15;6.30;;;5.07;;
22525;SDS011;11429;50.842;4.386;2023-05-10T11:46:41;8.32;;;5.82;;
22525;SDS011;11429;50.842;4.386;2023-05-10T11:49:07;9.07;;;5.82;;
22525;SDS011;11429;50.842;4.386;2023-05-10T11:51:33;7.75;;;5.15;;
22525;SDS011;11429;50.842;4.386;2023-05-10T11:54:01;6.88;;;5.30;;
22525;SDS011;11429;50.842;4.386;2023-05-10T11:56:32;6.00;;;5.20;;
22525;SDS011;11429;50.842;4.386;2023-05-10T11:58:58;8.32;;;6.28;;
22525;SDS011;11429;50.842;4.386;2023-05-10T12:01:27;6.72;;;5.25;;
22525;SDS011;11429;50.842;4.386;2023-05-10T12:03:54;6.68;;;4.78;;
22525;SDS011;11429;50.842;4.386;2023-05-10T12:06:25;5.50;;;4.78;;
22525;SDS011;11429;50.842;4.386;2023-05-10T12:08:52;6.63;;;5.10;;
22525;SDS011;11429;50.842;4.386;2023-05-10T12:11:18;11.57;;;7.15;;
22525;SDS011;11429;50.842;4.386;2023-05-10T12:13:46;8.40;;;5.82;;
22525;SDS011;11429;50.842;4.386;2023-05-10T12:16:22;9.32;;;7.35;;
22525;SDS011;11429;50.842;4.386;2023-05-10T12:18:53;11.60;;;7.55;;
22525;SDS011;11429;50.842;4.386;2023-05-10T12:21:21;9.13;;;7.22;;
22525;SDS011;11429;50.842;4.386;2023-05-10T12:23:48;8.70;;;6.82;;
22525;SDS011;11429;50.842;4.386;2023-05-10T12:26:15;8.27;;;6.63;;
22525;SDS011;11429;50.842;4.386;2023-05-10T12:28:41;8.43;;;6.47;;
22525;SDS011;11429;50.842;4.386;2023-05-10T12:31:07;9.63;;;6.82;;
22525;SDS011;11429;50.842;4.386;2023-05-10T12:33:36;9.85;;;6.40;;
22525;SDS011;11429;50.842;4.386;2023-05-10T12:36:04;8.38;;;6.68;;
22525;SDS011;11429;50.842;4.386;2023-05-10T12:38:32;8.77;;;6.22;;
22525;SDS011;11429;50.842;4.386;2023-05-10T12:41:00;9.93;;;6.40;;
22525;SDS011;11429;50.842;4.386;2023-05-10T12:43:28;9.27;;;6.45;;
22525;SDS011;11429;50.842;4.386;2023-05-10T12:45:54;9.30;;;6.63;;
22525;SDS011;11429;50.842;4.386;2023-05-10T12:48:20;11.25;;;7.10;;
22525;SDS011;11429;50.842;4.386;2023-05-10T12:50:46;10.13;;;7.35;;
22525;SDS011;11429;50.842;4.386;2023-05-10T12:53:15;10.98;;;8.23;;
22525;SDS011;11429;50.842;4.386;2023-05-10T12:55:41;7.85;;;6.72;;
22525;SDS011;11429;50.842;4.386;2023-05-10T12:58:08;7.95;;;6.90;;
22525;SDS011;11429;50.842;4.386;2023-05-10T13:00:33;7.70;;;6.63;;
22525;SDS011;11429;50.842;4.386;2023-05-10T13:02:59;10.45;;;6.25;;
22525;SDS011;11429;50.842;4.386;2023-05-10T13:05:25;10.18;;;5.80;;
22525;SDS011;11429;50.842;4.386;2023-05-10T13:07:51;6.55;;;5.15;;
22525;SDS011;11429;50.842;4.386;2023-05-10T13:10:16;7.05;;;5.45;;
22525;SDS011;11429;50.842;4.386;2023-05-10T13:12:42;5.22;;;4.15;;
22525;SDS011;11429;50.842;4.386;2023-05-10T13:15:08;6.55;;;4.50;;
22525;SDS011;11429;50.842;4.386;2023-05-10T13:17:34;6.95;;;5.00;;
22525;SDS011;11429;50.842;4.386;2023-05-10T13:19:59;4.90;;;3.80;;
22525;SDS011;11429;50.842;4.386;2023-05-10T13:22:25;6.82;;;3.80;;
22525;SDS011;11429;50.842;4.386;2023-05-10T13:24:51;5.00;;;3.63;;
22525;SDS011;11429;50.842;4.386;2023-05-10T13:27:17;5.22;;;3.67;;
22525;SDS011;11429;50.842;4.386;2023-05-10T13:29:42;5.28;;;3.83;;
22525;SDS011;11429;50.842;4.386;2023-05-10T13:32:08;4.95;;;3.20;;
22525;SDS011;11429;50.842;4.386;2023-05-10T13:34:34;6.50;;;4.55;;
22525;SDS011;11429;50.842;4.386;2023-05-10T13:37:00;7.32;;;5.75;;
22525;SDS011;11429;50.842;4.386;2023-05-10T13:39:29;8.30;;;5.50;;
22525;SDS011;11429;50.842;4.386;2023-05-10T13:41:58;9.55;;;6.03;;
22525;SDS011;11429;50.842;4.386;2023-05-10T13:44:23;7.95;;;5.95;;
22525;SDS011;11429;50.842;4.386;2023-05-10T13:46:49;8.80;;;5.82;;
22525;SDS011;11429;50.842;4.386;2023-05-10T13:49:15;8.77;;;5.78;;
22525;SDS011;11429;50.842;4.386;2023-05-10T13:51:40;8.50;;;5.85;;
22525;SDS011;11429;50.842;4.386;2023-05-10T13:54:09;12.32;;;5.57;;
22525;SDS011;11429;50.842;4.386;2023-05-10T13:56:34;8.35;;;5.60;;
22525;SDS011;11429;50.842;4.386;2023-05-10T13:59:00;11.48;;;5.85;;
22525;SDS011;11429;50.842;4.386;2023-05-10T14:01:26;9.40;;;5.47;;
22525;SDS011;11429;50.842;4.386;2023-05-10T14:03:51;13.32;;;7.45;;
22525;SDS011;11429;50.842;4.386;2023-05-10T14:06:17;10.05;;;6.72;;
22525;SDS011;11429;50.842;4.386;2023-05-10T14:08:43;10.30;;;7.93;;
22525;SDS011;11429;50.842;4.386;2023-05-10T14:11:09;7.95;;;6.18;;
22525;SDS011;11429;50.842;4.386;2023-05-10T14:13:34;11.40;;;7.88;;
22525;SDS011;11429;50.842;4.386;2023-05-10T14:16:00;12.57;;;9.20;;
22525;SDS011;11429;50.842;4.386;2023-05-10T14:18:26;11.75;;;9.43;;
22525;SDS011;11429;50.842;4.386;2023-05-10T14:20:52;11.95;;;9.82;;
22525;SDS011;11429;50.842;4.386;2023-05-10T14:23:18;12.30;;;9.40;;
22525;SDS011;11429;50.842;4.386;2023-05-10T14:25:48;12.20;;;10.35;;
22525;SDS011;11429;50.842;4.386;2023-05-10T14:28:15;15.85;;;11.00;;
22525;SDS011;11429;50.842;4.386;2023-05-10T14:30:42;13.60;;;11.65;;
22525;SDS011;11429;50.842;4.386;2023-05-10T14:33:08;12.65;;;10.32;;
22525;SDS011;11429;50.842;4.386;2023-05-10T14:35:33;16.05;;;10.95;;
22525;SDS011;11429;50.842;4.386;2023-05-10T14:37:59;15.10;;;10.07;;
22525;SDS011;11429;50.842;4.386;2023-05-10T14:40:25;15.02;;;9.93;;
22525;SDS011;11429;50.842;4.386;2023-05-10T14:42:51;14.63;;;10.00;;
22525;SDS011;11429;50.842;4.386;2023-05-10T14:45:18;13.88;;;9.57;;
22525;SDS011;11429;50.842;4.386;2023-05-10T14:47:44;15.68;;;10.13;;
22525;SDS011;11429;50.842;4.386;2023-05-10T14:50:09;13.85;;;10.43;;
22525;SDS011;11429;50.842;4.386;2023-05-10T14:52:35;14.90;;;9.73;;
22525;SDS011;11429;50.842;4.386;2023-05-10T14:55:01;16.15;;;10.45;;
22525;SDS011;11429;50.842;4.386;2023-05-10T14:57:27;17.50;;;10.75;;
22525;SDS011;11429;50.842;4.386;2023-05-10T14:59:54;17.17;;;11.05;;
22525;SDS011;11429;50.842;4.386;2023-05-10T15:02:21;18.55;;;12.02;;